HGB101 VHHH-VMMC
Flight info
| Callsign | HGB101 |
|---|---|
| Flight time | N/A |
| Altitude | FL070 |
| Route | MCU BASE TRAINING |
| Aircraft | B738/M-S/N |
Departure
| Time | 2026-05-05 13:30 |
|---|---|
| Airport | Hong Kong International Airport (VHHH) |
Arrival
| Time | N/A |
|---|---|
| Airport | Macau International Airport (VMMC) |
| Time | Latitude | Longitude | Altitude | Speed | Heading |
|---|---|---|---|---|---|
| 2026-05-05 12:49 | 22.30759 | 113.91950 | 34 ft | 0 kts | 251° |
| 2026-05-05 13:16 | 22.30764 | 113.91964 | 35 ft | 2 kts | 249° |
| 2026-05-05 13:16 | 22.30769 | 113.91977 | 35 ft | 2 kts | 248° |
| 2026-05-05 13:16 | 22.30774 | 113.91991 | 35 ft | 2 kts | 245° |
| 2026-05-05 13:16 | 22.30780 | 113.92003 | 35 ft | 2 kts | 241° |
| 2026-05-05 13:17 | 22.30787 | 113.92015 | 35 ft | 2 kts | 232° |
| 2026-05-05 13:17 | 22.30795 | 113.92024 | 35 ft | 2 kts | 215° |
| 2026-05-05 13:17 | 22.30804 | 113.92029 | 35 ft | 1 kts | 190° |
| 2026-05-05 13:17 | 22.30813 | 113.92030 | 35 ft | 1 kts | 172° |
| 2026-05-05 13:18 | 22.30819 | 113.92028 | 34 ft | 1 kts | 166° |
| 2026-05-05 13:18 | 22.30824 | 113.92027 | 34 ft | 1 kts | 163° |
| 2026-05-05 13:18 | 22.30829 | 113.92025 | 34 ft | 1 kts | 162° |
| 2026-05-05 13:18 | 22.30831 | 113.92025 | 34 ft | 0 kts | 161° |
| 2026-05-05 13:24 | 22.30830 | 113.92025 | 34 ft | 0 kts | 161° |
| 2026-05-05 13:24 | 22.30821 | 113.92028 | 34 ft | 2 kts | 161° |
| 2026-05-05 13:24 | 22.30788 | 113.92050 | 34 ft | 10 kts | 128° |
| 2026-05-05 13:24 | 22.30772 | 113.92146 | 34 ft | 15 kts | 134° |
| 2026-05-05 13:25 | 22.30669 | 113.92154 | 34 ft | 16 kts | 216° |
| 2026-05-05 13:25 | 22.30623 | 113.92043 | 34 ft | 17 kts | 251° |
| 2026-05-05 13:25 | 22.30583 | 113.91918 | 34 ft | 18 kts | 251° |
| 2026-05-05 13:25 | 22.30539 | 113.91782 | 34 ft | 20 kts | 250° |
| 2026-05-05 13:26 | 22.30491 | 113.91637 | 34 ft | 21 kts | 250° |
| 2026-05-05 13:26 | 22.30440 | 113.91483 | 35 ft | 22 kts | 251° |
| 2026-05-05 13:26 | 22.30388 | 113.91320 | 35 ft | 24 kts | 250° |
| 2026-05-05 13:26 | 22.30333 | 113.91149 | 35 ft | 25 kts | 251° |
| 2026-05-05 13:27 | 22.30275 | 113.90969 | 35 ft | 26 kts | 250° |
| 2026-05-05 13:27 | 22.30215 | 113.90782 | 34 ft | 27 kts | 251° |
| 2026-05-05 13:27 | 22.30154 | 113.90586 | 34 ft | 28 kts | 251° |
| 2026-05-05 13:27 | 22.30095 | 113.90408 | 34 ft | 15 kts | 249° |
| 2026-05-05 13:28 | 22.30043 | 113.90359 | 34 ft | 10 kts | 176° |
| 2026-05-05 13:28 | 22.29979 | 113.90334 | 34 ft | 11 kts | 238° |
| 2026-05-05 13:28 | 22.29947 | 113.90251 | 34 ft | 13 kts | 243° |
| 2026-05-05 13:28 | 22.29870 | 113.90233 | 34 ft | 13 kts | 159° |
| 2026-05-05 13:29 | 22.29791 | 113.90263 | 33 ft | 6 kts | 161° |
| 2026-05-05 13:29 | 22.29780 | 113.90301 | 33 ft | 6 kts | 74° |
| 2026-05-05 13:29 | 22.29782 | 113.90309 | 33 ft | 0 kts | 70° |
| 2026-05-05 13:29 | 22.29809 | 113.90392 | 33 ft | 42 kts | 71° |
| 2026-05-05 13:30 | 22.29981 | 113.90928 | 34 ft | 107 kts | 70° |
| 2026-05-05 13:30 | 22.30290 | 113.91880 | 35 ft | 159 kts | 70° |
| 2026-05-05 13:30 | 22.30682 | 113.93137 | 218 ft | 187 kts | 72° |
| 2026-05-05 13:30 | 22.31101 | 113.94467 | 961 ft | 188 kts | 71° |
| 2026-05-05 13:31 | 22.31959 | 113.97086 | 2438 ft | 187 kts | 71° |
| 2026-05-05 13:31 | 22.32390 | 113.98413 | 3111 ft | 188 kts | 71° |
| 2026-05-05 13:31 | 22.32836 | 113.99795 | 3555 ft | 204 kts | 71° |
| 2026-05-05 13:32 | 22.33321 | 114.01301 | 3980 ft | 221 kts | 71° |
| 2026-05-05 13:32 | 22.33724 | 114.02929 | 4382 ft | 229 kts | 88° |
| 2026-05-05 13:32 | 22.33419 | 114.04613 | 4666 ft | 234 kts | 118° |
| 2026-05-05 13:32 | 22.32331 | 114.05956 | 4845 ft | 249 kts | 147° |
| 2026-05-05 13:33 | 22.30673 | 114.06597 | 4887 ft | 263 kts | 175° |
| 2026-05-05 13:33 | 22.28815 | 114.06399 | 4918 ft | 276 kts | 197° |
| 2026-05-05 13:33 | 22.27167 | 114.05362 | 4942 ft | 280 kts | 224° |
| 2026-05-05 13:33 | 22.26003 | 114.03662 | 4988 ft | 284 kts | 234° |
| 2026-05-05 13:34 | 22.24776 | 114.01990 | 5000 ft | 285 kts | 230° |
| 2026-05-05 13:34 | 22.23525 | 114.00334 | 4996 ft | 285 kts | 230° |
| 2026-05-05 13:34 | 22.22283 | 113.98673 | 4990 ft | 285 kts | 231° |
| 2026-05-05 13:34 | 22.21044 | 113.97007 | 4993 ft | 286 kts | 231° |
| 2026-05-05 13:35 | 22.19805 | 113.95337 | 4994 ft | 285 kts | 231° |
| 2026-05-05 13:35 | 22.18571 | 113.93671 | 5000 ft | 286 kts | 231° |
| 2026-05-05 13:35 | 22.17332 | 113.92000 | 4998 ft | 285 kts | 231° |
| 2026-05-05 13:35 | 22.16096 | 113.90329 | 5003 ft | 286 kts | 231° |
| 2026-05-05 13:36 | 22.14858 | 113.88658 | 4996 ft | 285 kts | 231° |
| 2026-05-05 13:36 | 22.13623 | 113.86991 | 5001 ft | 285 kts | 231° |
| 2026-05-05 13:36 | 22.12388 | 113.85325 | 5001 ft | 285 kts | 231° |
| 2026-05-05 13:36 | 22.11150 | 113.83654 | 5004 ft | 285 kts | 231° |
| 2026-05-05 13:37 | 22.09914 | 113.81988 | 5002 ft | 285 kts | 231° |
| 2026-05-05 13:37 | 22.08676 | 113.80319 | 5001 ft | 285 kts | 231° |
| 2026-05-05 13:37 | 22.07470 | 113.78690 | 5000 ft | 272 kts | 231° |
| 2026-05-05 13:37 | 22.06310 | 113.77125 | 4816 ft | 267 kts | 231° |
| 2026-05-05 13:38 | 22.05148 | 113.75560 | 4439 ft | 269 kts | 231° |
| 2026-05-05 13:38 | 22.03977 | 113.73985 | 4075 ft | 269 kts | 231° |
| 2026-05-05 13:38 | 22.02821 | 113.72427 | 3726 ft | 262 kts | 231° |
| 2026-05-05 13:38 | 22.01706 | 113.70926 | 3397 ft | 255 kts | 230° |
| 2026-05-05 13:39 | 22.00837 | 113.69321 | 3087 ft | 243 kts | 252° |
| 2026-05-05 13:39 | 22.00676 | 113.67572 | 2796 ft | 229 kts | 278° |
| 2026-05-05 13:39 | 22.01152 | 113.66022 | 2600 ft | 211 kts | 301° |
| 2026-05-05 13:39 | 22.02057 | 113.64867 | 2393 ft | 195 kts | 323° |
| 2026-05-05 13:40 | 22.03175 | 113.64134 | 2196 ft | 184 kts | 335° |
| 2026-05-05 13:40 | 22.04324 | 113.63538 | 1993 ft | 183 kts | 334° |
| 2026-05-05 13:40 | 22.05422 | 113.62846 | 1780 ft | 183 kts | 332° |
| 2026-05-05 13:40 | 22.06564 | 113.62269 | 1554 ft | 180 kts | 339° |
| 2026-05-05 13:41 | 22.07677 | 113.61823 | 1351 ft | 165 kts | 342° |
| 2026-05-05 13:41 | 22.08742 | 113.61431 | 1151 ft | 160 kts | 342° |
| 2026-05-05 13:41 | 22.09787 | 113.61047 | 914 ft | 158 kts | 342° |
| 2026-05-05 13:41 | 22.10823 | 113.60652 | 726 ft | 158 kts | 341° |
| 2026-05-05 13:42 | 22.11859 | 113.60257 | 537 ft | 160 kts | 344° |
| 2026-05-05 13:42 | 22.12924 | 113.59889 | 304 ft | 163 kts | 342° |
| 2026-05-05 13:42 | 22.13995 | 113.59486 | 88 ft | 159 kts | 342° |
| 2026-05-05 13:42 | 22.14964 | 113.59148 | 31 ft | 134 kts | 342° |
| 2026-05-05 13:43 | 22.15948 | 113.58780 | 65 ft | 174 kts | 342° |
| 2026-05-05 13:43 | 22.17100 | 113.58345 | 851 ft | 176 kts | 341° |
| 2026-05-05 13:43 | 22.18305 | 113.57981 | 1325 ft | 186 kts | 357° |
| 2026-05-05 13:43 | 22.19486 | 113.58338 | 1146 ft | 176 kts | 39° |
| 2026-05-05 13:44 | 22.20118 | 113.59411 | 1027 ft | 171 kts | 82° |
| 2026-05-05 13:44 | 22.19899 | 113.60642 | 1053 ft | 172 kts | 124° |
| 2026-05-05 13:44 | 22.18964 | 113.61420 | 1192 ft | 174 kts | 157° |
| 2026-05-05 13:44 | 22.17804 | 113.61857 | 1448 ft | 178 kts | 161° |
| 2026-05-05 13:45 | 22.16620 | 113.62274 | 1570 ft | 180 kts | 161° |
| 2026-05-05 13:45 | 22.15437 | 113.62687 | 1566 ft | 179 kts | 161° |
| 2026-05-05 13:45 | 22.14252 | 113.63096 | 1525 ft | 179 kts | 161° |
| 2026-05-05 13:45 | 22.13067 | 113.63503 | 1509 ft | 179 kts | 161° |
| 2026-05-05 13:46 | 22.11886 | 113.63912 | 1517 ft | 178 kts | 161° |
| 2026-05-05 13:46 | 22.10707 | 113.64319 | 1590 ft | 179 kts | 161° |
| 2026-05-05 13:46 | 22.09483 | 113.64473 | 1604 ft | 181 kts | 187° |
| 2026-05-05 13:46 | 22.08386 | 113.63858 | 1309 ft | 180 kts | 229° |
| 2026-05-05 13:47 | 22.07970 | 113.62625 | 1204 ft | 180 kts | 274° |
| 2026-05-05 13:47 | 22.08454 | 113.61422 | 1072 ft | 174 kts | 315° |
| 2026-05-05 13:47 | 22.09445 | 113.60808 | 848 ft | 162 kts | 350° |
| 2026-05-05 13:47 | 22.10537 | 113.60701 | 738 ft | 158 kts | 359° |
| 2026-05-05 13:48 | 22.11604 | 113.60478 | 515 ft | 157 kts | 340° |
| 2026-05-05 13:48 | 22.12612 | 113.60032 | 295 ft | 156 kts | 341° |
| 2026-05-05 13:48 | 22.13622 | 113.59637 | 114 ft | 154 kts | 341° |
| 2026-05-05 13:48 | 22.14605 | 113.59273 | 32 ft | 140 kts | 344° |
| 2026-05-05 13:49 | 22.15491 | 113.58946 | 29 ft | 149 kts | 341° |
| 2026-05-05 13:49 | 22.16618 | 113.58542 | 368 ft | 176 kts | 342° |
| 2026-05-05 13:49 | 22.17735 | 113.58140 | 1290 ft | 171 kts | 342° |
| 2026-05-05 13:49 | 22.18923 | 113.57988 | 1308 ft | 175 kts | 13° |
| 2026-05-05 13:50 | 22.19889 | 113.58695 | 932 ft | 167 kts | 66° |
| 2026-05-05 13:50 | 22.19985 | 113.59861 | 698 ft | 158 kts | 104° |
| 2026-05-05 13:50 | 22.19509 | 113.60958 | 519 ft | 164 kts | 120° |
| 2026-05-05 13:50 | 22.18741 | 113.61962 | 1029 ft | 190 kts | 143° |
| 2026-05-05 13:51 | 22.17459 | 113.62517 | 1627 ft | 203 kts | 165° |
| 2026-05-05 13:51 | 22.16091 | 113.62946 | 1266 ft | 202 kts | 161° |
| 2026-05-05 13:51 | 22.14837 | 113.63386 | 1383 ft | 182 kts | 161° |
| 2026-05-05 13:51 | 22.13642 | 113.63806 | 1470 ft | 181 kts | 161° |
| 2026-05-05 13:52 | 22.12441 | 113.64229 | 1521 ft | 182 kts | 161° |
| 2026-05-05 13:52 | 22.11243 | 113.64648 | 1510 ft | 182 kts | 161° |
| 2026-05-05 13:52 | 22.10035 | 113.65025 | 1444 ft | 182 kts | 169° |
| 2026-05-05 13:52 | 22.08838 | 113.64835 | 1215 ft | 170 kts | 210° |
| 2026-05-05 13:53 | 22.08171 | 113.63906 | 1148 ft | 159 kts | 259° |
| 2026-05-05 13:53 | 22.08362 | 113.62751 | 1217 ft | 160 kts | 298° |
| 2026-05-05 13:53 | 22.09011 | 113.61771 | 1183 ft | 163 kts | 310° |
| 2026-05-05 13:53 | 22.09841 | 113.60978 | 823 ft | 158 kts | 335° |
| 2026-05-05 13:54 | 22.10876 | 113.60629 | 695 ft | 157 kts | 347° |
| 2026-05-05 13:54 | 22.11924 | 113.60285 | 497 ft | 158 kts | 342° |
| 2026-05-05 13:54 | 22.12948 | 113.59888 | 269 ft | 155 kts | 341° |
| 2026-05-05 13:54 | 22.13955 | 113.59500 | 53 ft | 151 kts | 343° |
| 2026-05-05 13:55 | 22.14886 | 113.59172 | 30 ft | 130 kts | 341° |
| 2026-05-05 13:55 | 22.15789 | 113.58836 | 29 ft | 165 kts | 341° |
| 2026-05-05 13:55 | 22.17025 | 113.58411 | 456 ft | 196 kts | 342° |
| 2026-05-05 13:55 | 22.18354 | 113.57929 | 1185 ft | 206 kts | 344° |
| 2026-05-05 13:56 | 22.19770 | 113.57819 | 1332 ft | 204 kts | 11° |
| 2026-05-05 13:56 | 22.20982 | 113.58504 | 1288 ft | 194 kts | 48° |
| 2026-05-05 13:56 | 22.21508 | 113.59749 | 1301 ft | 182 kts | 87° |
| 2026-05-05 13:56 | 22.21175 | 113.61020 | 1344 ft | 180 kts | 127° |
| 2026-05-05 13:57 | 22.20163 | 113.61793 | 1450 ft | 182 kts | 157° |
| 2026-05-05 13:57 | 22.18956 | 113.62248 | 1554 ft | 185 kts | 160° |
| 2026-05-05 13:57 | 22.17731 | 113.62676 | 1546 ft | 185 kts | 161° |
| 2026-05-05 13:57 | 22.16511 | 113.63099 | 1515 ft | 185 kts | 161° |
| 2026-05-05 13:58 | 22.15288 | 113.63523 | 1504 ft | 186 kts | 160° |
| 2026-05-05 13:58 | 22.14062 | 113.63949 | 1502 ft | 185 kts | 161° |
| 2026-05-05 13:58 | 22.12840 | 113.64372 | 1499 ft | 185 kts | 161° |
| 2026-05-05 13:58 | 22.11616 | 113.64800 | 1498 ft | 185 kts | 161° |
| 2026-05-05 13:59 | 22.09220 | 113.65564 | 1344 ft | 169 kts | 178° |
| 2026-05-05 13:59 | 22.08199 | 113.65137 | 1172 ft | 158 kts | 222° |
| 2026-05-05 14:00 | 22.07912 | 113.62953 | 1022 ft | 159 kts | 297° |
| 2026-05-05 14:00 | 22.08512 | 113.61943 | 1018 ft | 161 kts | 306° |
| 2026-05-05 14:00 | 22.09316 | 113.61137 | 845 ft | 159 kts | 339° |
| 2026-05-05 14:00 | 22.10371 | 113.60860 | 749 ft | 157 kts | 349° |
| 2026-05-05 14:01 | 22.11416 | 113.60509 | 648 ft | 158 kts | 340° |
| 2026-05-05 14:01 | 22.12441 | 113.60079 | 421 ft | 158 kts | 340° |
| 2026-05-05 14:01 | 22.13467 | 113.59687 | 149 ft | 156 kts | 343° |
| 2026-05-05 14:01 | 22.14462 | 113.59317 | 31 ft | 142 kts | 342° |
| 2026-05-05 14:02 | 22.15387 | 113.58983 | 30 ft | 161 kts | 341° |
| 2026-05-05 14:02 | 22.16614 | 113.58540 | 390 ft | 195 kts | 342° |
| 2026-05-05 14:02 | 22.17879 | 113.58082 | 1473 ft | 197 kts | 342° |
| 2026-05-05 14:02 | 22.19250 | 113.57743 | 1711 ft | 202 kts | 4° |
| 2026-05-05 14:03 | 22.20533 | 113.58266 | 1773 ft | 203 kts | 45° |
| 2026-05-05 14:03 | 22.21236 | 113.59567 | 2319 ft | 214 kts | 78° |
| 2026-05-05 14:03 | 22.21139 | 113.61217 | 2754 ft | 232 kts | 111° |
| 2026-05-05 14:03 | 22.20174 | 113.62675 | 3247 ft | 252 kts | 140° |
| 2026-05-05 14:04 | 22.18580 | 113.63561 | 3820 ft | 268 kts | 159° |
| 2026-05-05 14:04 | 22.16773 | 113.64211 | 4455 ft | 279 kts | 161° |
| 2026-05-05 14:04 | 22.14922 | 113.64872 | 5297 ft | 282 kts | 161° |
| 2026-05-05 14:04 | 22.13055 | 113.65555 | 5861 ft | 288 kts | 161° |
| 2026-05-05 14:05 | 22.11169 | 113.66253 | 5945 ft | 286 kts | 161° |
| 2026-05-05 14:05 | 22.09298 | 113.66957 | 5986 ft | 286 kts | 161° |
| 2026-05-05 14:05 | 22.07428 | 113.67674 | 5993 ft | 286 kts | 161° |
| 2026-05-05 14:05 | 22.05664 | 113.68598 | 5989 ft | 279 kts | 140° |
| 2026-05-05 14:06 | 22.04595 | 113.70251 | 5911 ft | 269 kts | 108° |
| 2026-05-05 14:06 | 22.04493 | 113.72229 | 5621 ft | 267 kts | 79° |
| 2026-05-05 14:06 | 22.05175 | 113.74075 | 5275 ft | 268 kts | 54° |
| 2026-05-05 14:06 | 22.06561 | 113.75388 | 4920 ft | 268 kts | 26° |
| 2026-05-05 14:07 | 22.08348 | 113.75898 | 4575 ft | 269 kts | 1° |
| 2026-05-05 14:07 | 22.10182 | 113.75571 | 4241 ft | 270 kts | 343° |
| 2026-05-05 14:07 | 22.11976 | 113.74999 | 3911 ft | 270 kts | 345° |
| 2026-05-05 14:07 | 22.13782 | 113.74460 | 3561 ft | 271 kts | 346° |
| 2026-05-05 14:08 | 22.15604 | 113.73928 | 3215 ft | 272 kts | 346° |
| 2026-05-05 14:08 | 22.17428 | 113.73399 | 2888 ft | 271 kts | 346° |
| 2026-05-05 14:08 | 22.19241 | 113.72875 | 2592 ft | 269 kts | 346° |
| 2026-05-05 14:08 | 22.21056 | 113.72511 | 2326 ft | 265 kts | 4° |
| 2026-05-05 14:09 | 22.22739 | 113.73142 | 2126 ft | 255 kts | 36° |
| 2026-05-05 14:09 | 22.24146 | 113.74216 | 2072 ft | 244 kts | 34° |
| 2026-05-05 14:09 | 22.25522 | 113.75194 | 2054 ft | 231 kts | 35° |
| 2026-05-05 14:09 | 22.26645 | 113.76347 | 2063 ft | 214 kts | 56° |
| 2026-05-05 14:10 | 22.27267 | 113.77721 | 2050 ft | 195 kts | 72° |
| 2026-05-05 14:10 | 22.27645 | 113.79048 | 2015 ft | 178 kts | 73° |
| 2026-05-05 14:10 | 22.28026 | 113.80272 | 1856 ft | 162 kts | 71° |
| 2026-05-05 14:10 | 22.28386 | 113.81384 | 1691 ft | 156 kts | 71° |
| 2026-05-05 14:11 | 22.28741 | 113.82486 | 1463 ft | 155 kts | 71° |
| 2026-05-05 14:11 | 22.29092 | 113.83580 | 1264 ft | 155 kts | 71° |
| 2026-05-05 14:11 | 22.29446 | 113.84680 | 1058 ft | 156 kts | 71° |
| 2026-05-05 14:11 | 22.29802 | 113.85776 | 856 ft | 155 kts | 71° |
| 2026-05-05 14:12 | 22.30158 | 113.86872 | 665 ft | 155 kts | 71° |
| 2026-05-05 14:12 | 22.30510 | 113.87975 | 464 ft | 156 kts | 72° |
| 2026-05-05 14:12 | 22.30863 | 113.89085 | 249 ft | 158 kts | 72° |
| 2026-05-05 14:12 | 22.31222 | 113.90201 | 54 ft | 153 kts | 71° |
| 2026-05-05 14:13 | 22.31530 | 113.91162 | 34 ft | 117 kts | 70° |
| 2026-05-05 14:13 | 22.31756 | 113.91860 | 35 ft | 81 kts | 71° |
| 2026-05-05 14:13 | 22.31896 | 113.92290 | 36 ft | 42 kts | 71° |
| 2026-05-05 14:13 | 22.31924 | 113.92592 | 36 ft | 28 kts | 96° |
| 2026-05-05 14:14 | 22.31891 | 113.92752 | 35 ft | 9 kts | 103° |
| 2026-05-05 14:14 | 22.31868 | 113.92813 | 35 ft | 9 kts | 153° |
| 2026-05-05 14:14 | 22.31804 | 113.92838 | 35 ft | 11 kts | 160° |
| 2026-05-05 14:14 | 22.31754 | 113.92857 | 35 ft | 5 kts | 160° |
| 2026-05-05 14:15 | 22.31724 | 113.92884 | 35 ft | 6 kts | 109° |
| 2026-05-05 14:15 | 22.31733 | 113.92935 | 35 ft | 7 kts | 79° |
| 2026-05-05 14:15 | 22.31735 | 113.92946 | 35 ft | 2 kts | 81° |